sensor_id;sensor_type;location;lat;lon;timestamp;temperature;humidity
21393;DHT22;10857;52.228;21.026;2023-03-31T08:07:12;11.60;99.90
21393;DHT22;10857;52.228;21.026;2023-03-31T08:09:40;11.70;99.90
21393;DHT22;10857;52.228;21.026;2023-03-31T08:12:07;11.80;99.90
21393;DHT22;10857;52.228;21.026;2023-03-31T08:54:42;12.20;99.90
21393;DHT22;10857;52.228;21.026;2023-03-31T09:05:30;12.50;99.90
21393;DHT22;10857;52.228;21.026;2023-03-31T09:10:55;12.70;99.90
21393;DHT22;10857;52.228;21.026;2023-03-31T09:31:24;13.30;99.90
21393;DHT22;10857;52.228;21.026;2023-03-31T09:33:56;13.30;99.90
21393;DHT22;10857;52.228;21.026;2023-03-31T09:38:53;13.40;99.90
21393;DHT22;10857;52.228;21.026;2023-03-31T09:41:20;13.40;99.90
21393;DHT22;10857;52.228;21.026;2023-03-31T09:43:47;13.50;99.90
21393;DHT22;10857;52.228;21.026;2023-03-31T09:46:30;13.40;99.90
21393;DHT22;10857;52.228;21.026;2023-03-31T09:49:13;13.40;99.90
21393;DHT22;10857;52.228;21.026;2023-03-31T09:51:45;13.40;99.90
21393;DHT22;10857;52.228;21.026;2023-03-31T09:54:35;13.40;99.90
21393;DHT22;10857;52.228;21.026;2023-03-31T10:04:47;13.60;99.90
21393;DHT22;10857;52.228;21.026;2023-03-31T10:07:20;13.70;99.90
21393;DHT22;10857;52.228;21.026;2023-03-31T10:09:48;13.70;99.90
21393;DHT22;10857;52.228;21.026;2023-03-31T10:12:20;13.70;99.90
21393;DHT22;10857;52.228;21.026;2023-03-31T10:14:52;13.70;99.90
21393;DHT22;10857;52.228;21.026;2023-03-31T10:17:22;13.70;99.90
21393;DHT22;10857;52.228;21.026;2023-03-31T10:19:52;13.70;99.90
21393;DHT22;10857;52.228;21.026;2023-03-31T10:24:49;13.80;99.90
21393;DHT22;10857;52.228;21.026;2023-03-31T10:27:28;13.80;99.90
21393;DHT22;10857;52.228;21.026;2023-03-31T10:30:00;13.70;99.90
21393;DHT22;10857;52.228;21.026;2023-03-31T10:32:31;13.50;99.90
21393;DHT22;10857;52.228;21.026;2023-03-31T10:35:32;13.70;99.90
21393;DHT22;10857;52.228;21.026;2023-03-31T10:38:11;13.90;99.90
21393;DHT22;10857;52.228;21.026;2023-03-31T10:40:52;14.10;99.90
21393;DHT22;10857;52.228;21.026;2023-03-31T10:43:28;14.40;99.90
21393;DHT22;10857;52.228;21.026;2023-03-31T10:45:57;14.50;99.90
21393;DHT22;10857;52.228;21.026;2023-03-31T10:48:30;14.40;99.90
21393;DHT22;10857;52.228;21.026;2023-03-31T10:51:01;14.40;99.90
21393;DHT22;10857;52.228;21.026;2023-03-31T10:53:40;14.20;99.90
21393;DHT22;10857;52.228;21.026;2023-03-31T11:02:19;14.40;99.90
21393;DHT22;10857;52.228;21.026;2023-03-31T11:24:16;14.30;99.90
21393;DHT22;10857;52.228;21.026;2023-03-31T11:33:14;14.60;99.90
21393;DHT22;10857;52.228;21.026;2023-03-31T11:38:29;14.50;99.90
21393;DHT22;10857;52.228;21.026;2023-03-31T11:41:46;14.60;99.90
21393;DHT22;10857;52.228;21.026;2023-03-31T11:43:56;14.80;99.90
21393;DHT22;10857;52.228;21.026;2023-03-31T11:49:15;15.10;99.90
21393;DHT22;10857;52.228;21.026;2023-03-31T11:51:56;15.20;99.90
21393;DHT22;10857;52.228;21.026;2023-03-31T11:57:11;15.20;99.90
21393;DHT22;10857;52.228;21.026;2023-03-31T11:59:41;15.20;99.90
21393;DHT22;10857;52.228;21.026;2023-03-31T12:02:21;15.20;99.90
21393;DHT22;10857;52.228;21.026;2023-03-31T12:04:54;15.10;99.90
21393;DHT22;10857;52.228;21.026;2023-03-31T12:07:45;15.10;99.90
21393;DHT22;10857;52.228;21.026;2023-03-31T12:10:22;15.10;99.90
21393;DHT22;10857;52.228;21.026;2023-03-31T12:12:56;15.20;99.90
21393;DHT22;10857;52.228;21.026;2023-03-31T12:15:32;15.20;99.90
21393;DHT22;10857;52.228;21.026;2023-03-31T12:18:13;15.10;99.90
21393;DHT22;10857;52.228;21.026;2023-03-31T12:20:51;15.20;99.90
21393;DHT22;10857;52.228;21.026;2023-03-31T12:23:25;15.30;99.90
21393;DHT22;10857;52.228;21.026;2023-03-31T12:28:36;15.40;99.90
21393;DHT22;10857;52.228;21.026;2023-03-31T12:31:07;15.50;99.90
21393;DHT22;10857;52.228;21.026;2023-03-31T12:33:39;15.50;99.90
21393;DHT22;10857;52.228;21.026;2023-03-31T12:39:43;15.80;99.90
21393;DHT22;10857;52.228;21.026;2023-03-31T12:42:37;15.90;99.90
21393;DHT22;10857;52.228;21.026;2023-03-31T12:48:50;15.80;99.90
21393;DHT22;10857;52.228;21.026;2023-03-31T12:52:00;15.70;99.90
21393;DHT22;10857;52.228;21.026;2023-03-31T12:59:40;15.70;99.90
21393;DHT22;10857;52.228;21.026;2023-03-31T13:04:38;15.60;99.90
21393;DHT22;10857;52.228;21.026;2023-03-31T13:09:57;15.80;99.90
21393;DHT22;10857;52.228;21.026;2023-03-31T13:12:25;15.80;99.90
21393;DHT22;10857;52.228;21.026;2023-03-31T13:14:55;16.00;99.90
21393;DHT22;10857;52.228;21.026;2023-03-31T13:17:31;15.90;99.90
21393;DHT22;10857;52.228;21.026;2023-03-31T13:20:16;15.90;99.90
21393;DHT22;10857;52.228;21.026;2023-03-31T13:22:45;15.80;99.90
21393;DHT22;10857;52.228;21.026;2023-03-31T13:27:53;15.40;99.90
21393;DHT22;10857;52.228;21.026;2023-03-31T13:56:08;15.60;99.90
21393;DHT22;10857;52.228;21.026;2023-03-31T13:58:50;15.60;99.90
21393;DHT22;10857;52.228;21.026;2023-03-31T14:01:46;15.60;99.90
21393;DHT22;10857;52.228;21.026;2023-03-31T14:07:14;15.50;99.90
21393;DHT22;10857;52.228;21.026;2023-03-31T14:09:45;15.50;99.90
21393;DHT22;10857;52.228;21.026;2023-03-31T14:12:31;15.50;99.90
21393;DHT22;10857;52.228;21.026;2023-03-31T14:28:48;16.00;99.90
21393;DHT22;10857;52.228;21.026;2023-03-31T14:36:57;15.90;99.90
21393;DHT22;10857;52.228;21.026;2023-03-31T14:39:30;15.80;99.90
21393;DHT22;10857;52.228;21.026;2023-03-31T14:42:05;15.80;99.90
21393;DHT22;10857;52.228;21.026;2023-03-31T14:44:37;15.80;99.90
21393;DHT22;10857;52.228;21.026;2023-03-31T14:47:05;15.70;99.90
21393;DHT22;10857;52.228;21.026;2023-03-31T14:49:37;15.60;99.90
21393;DHT22;10857;52.228;21.026;2023-03-31T14:54:40;15.60;99.90
21393;DHT22;10857;52.228;21.026;2023-03-31T14:57:10;15.70;99.90
21393;DHT22;10857;52.228;21.026;2023-03-31T14:59:39;15.60;99.90
21393;DHT22;10857;52.228;21.026;2023-03-31T15:02:16;15.60;99.90
21393;DHT22;10857;52.228;21.026;2023-03-31T15:04:46;15.40;99.90
21393;DHT22;10857;52.228;21.026;2023-03-31T15:07:15;15.50;99.90
21393;DHT22;10857;52.228;21.026;2023-03-31T15:09:47;15.50;99.90
21393;DHT22;10857;52.228;21.026;2023-03-31T15:12:19;15.50;99.90
21393;DHT22;10857;52.228;21.026;2023-03-31T15:14:50;15.60;99.90
21393;DHT22;10857;52.228;21.026;2023-03-31T15:17:28;15.60;99.90
21393;DHT22;10857;52.228;21.026;2023-03-31T15:19:59;15.70;99.90
21393;DHT22;10857;52.228;21.026;2023-03-31T15:22:28;15.70;99.90
21393;DHT22;10857;52.228;21.026;2023-03-31T15:24:56;15.70;99.90
21393;DHT22;10857;52.228;21.026;2023-03-31T15:27:53;15.60;99.90
21393;DHT22;10857;52.228;21.026;2023-03-31T15:30:23;15.50;99.90
21393;DHT22;10857;52.228;21.026;2023-03-31T15:32:51;15.50;99.90
21393;DHT22;10857;52.228;21.026;2023-03-31T15:35:31;15.40;99.90
21393;DHT22;10857;52.228;21.026;2023-03-31T15:38:01;14.80;99.90
21393;DHT22;10857;52.228;21.026;2023-03-31T15:40:34;14.10;99.90
21393;DHT22;10857;52.228;21.026;2023-03-31T15:45:55;13.60;99.90
21393;DHT22;10857;52.228;21.026;2023-03-31T15:48:36;13.50;99.90
21393;DHT22;10857;52.228;21.026;2023-03-31T15:51:23;13.50;99.90
21393;DHT22;10857;52.228;21.026;2023-03-31T15:53:53;13.50;99.90
21393;DHT22;10857;52.228;21.026;2023-03-31T15:56:28;13.40;99.90
21393;DHT22;10857;52.228;21.026;2023-03-31T15:59:02;13.50;99.90
21393;DHT22;10857;52.228;21.026;2023-03-31T16:01:36;13.40;99.90
21393;DHT22;10857;52.228;21.026;2023-03-31T16:04:12;13.40;99.90
21393;DHT22;10857;52.228;21.026;2023-03-31T16:06:48;13.50;99.90
21393;DHT22;10857;52.228;21.026;2023-03-31T16:09:25;13.50;99.90
21393;DHT22;10857;52.228;21.026;2023-03-31T16:11:59;13.50;99.90
21393;DHT22;10857;52.228;21.026;2023-03-31T16:14:31;13.40;99.90
21393;DHT22;10857;52.228;21.026;2023-03-31T16:17:06;13.40;99.90
21393;DHT22;10857;52.228;21.026;2023-03-31T16:19:48;13.50;99.90
21393;DHT22;10857;52.228;21.026;2023-03-31T16:22:20;13.60;99.90
21393;DHT22;10857;52.228;21.026;2023-03-31T16:24:48;13.60;99.90
21393;DHT22;10857;52.228;21.026;2023-03-31T16:27:16;13.60;99.90
21393;DHT22;10857;52.228;21.026;2023-03-31T16:29:43;13.60;99.90
21393;DHT22;10857;52.228;21.026;2023-03-31T16:32:12;13.60;99.90
21393;DHT22;10857;52.228;21.026;2023-03-31T16:34:56;13.50;99.90
21393;DHT22;10857;52.228;21.026;2023-03-31T16:37:24;13.40;99.90
21393;DHT22;10857;52.228;21.026;2023-03-31T16:39:52;13.40;99.90
21393;DHT22;10857;52.228;21.026;2023-03-31T16:42:19;13.30;99.90
21393;DHT22;10857;52.228;21.026;2023-03-31T16:44:47;13.30;99.90
21393;DHT22;10857;52.228;21.026;2023-03-31T16:47:36;13.20;99.90
21393;DHT22;10857;52.228;21.026;2023-03-31T16:50:04;13.20;99.90
21393;DHT22;10857;52.228;21.026;2023-03-31T16:52:33;13.20;99.90
21393;DHT22;10857;52.228;21.026;2023-03-31T16:55:02;13.10;99.90
21393;DHT22;10857;52.228;21.026;2023-03-31T16:57:29;13.10;99.90
21393;DHT22;10857;52.228;21.026;2023-03-31T16:59:59;13.10;99.90
21393;DHT22;10857;52.228;21.026;2023-03-31T17:02:26;13.10;99.90
21393;DHT22;10857;52.228;21.026;2023-03-31T17:04:54;13.10;99.90
21393;DHT22;10857;52.228;21.026;2023-03-31T17:07:50;13.10;99.90
21393;DHT22;10857;52.228;21.026;2023-03-31T17:10:23;13.10;99.90
21393;DHT22;10857;52.228;21.026;2023-03-31T17:12:51;13.10;99.90
21393;DHT22;10857;52.228;21.026;2023-03-31T17:15:18;13.20;99.90
21393;DHT22;10857;52.228;21.026;2023-03-31T17:17:46;13.10;99.90
21393;DHT22;10857;52.228;21.026;2023-03-31T17:20:13;13.20;99.90
21393;DHT22;10857;52.228;21.026;2023-03-31T17:22:40;13.10;99.90
21393;DHT22;10857;52.228;21.026;2023-03-31T17:25:09;13.10;99.90
21393;DHT22;10857;52.228;21.026;2023-03-31T17:27:38;13.00;99.90
21393;DHT22;10857;52.228;21.026;2023-03-31T17:30:06;13.00;99.90
21393;DHT22;10857;52.228;21.026;2023-03-31T17:32:35;13.10;99.90
21393;DHT22;10857;52.228;21.026;2023-03-31T17:35:03;13.10;99.90
21393;DHT22;10857;52.228;21.026;2023-03-31T17:37:32;13.10;99.90
21393;DHT22;10857;52.228;21.026;2023-03-31T17:39:59;13.20;99.90
21393;DHT22;10857;52.228;21.026;2023-03-31T17:42:26;13.20;99.90
21393;DHT22;10857;52.228;21.026;2023-03-31T17:44:54;13.20;99.90
21393;DHT22;10857;52.228;21.026;2023-03-31T17:47:22;13.10;99.90
21393;DHT22;10857;52.228;21.026;2023-03-31T17:49:49;13.00;99.90
21393;DHT22;10857;52.228;21.026;2023-03-31T17:52:17;12.90;99.90
21393;DHT22;10857;52.228;21.026;2023-03-31T17:54:44;12.80;99.90
21393;DHT22;10857;52.228;21.026;2023-03-31T17:57:11;12.70;99.90
21393;DHT22;10857;52.228;21.026;2023-03-31T17:59:41;12.70;99.90
21393;DHT22;10857;52.228;21.026;2023-03-31T18:02:11;12.50;99.90
21393;DHT22;10857;52.228;21.026;2023-03-31T18:04:41;12.40;99.90
21393;DHT22;10857;52.228;21.026;2023-03-31T18:07:09;12.40;99.90
21393;DHT22;10857;52.228;21.026;2023-03-31T18:09:37;12.40;99.90
21393;DHT22;10857;52.228;21.026;2023-03-31T18:12:05;12.20;99.90
21393;DHT22;10857;52.228;21.026;2023-03-31T18:14:33;12.20;99.90
21393;DHT22;10857;52.228;21.026;2023-03-31T18:17:00;12.20;99.90
21393;DHT22;10857;52.228;21.026;2023-03-31T18:19:28;12.20;99.90
21393;DHT22;10857;52.228;21.026;2023-03-31T18:21:55;12.20;99.90
21393;DHT22;10857;52.228;21.026;2023-03-31T18:24:22;12.20;99.90
21393;DHT22;10857;52.228;21.026;2023-03-31T18:26:49;12.20;99.90
21393;DHT22;10857;52.228;21.026;2023-03-31T18:29:16;12.20;99.90
21393;DHT22;10857;52.228;21.026;2023-03-31T18:31:43;12.20;99.90
21393;DHT22;10857;52.228;21.026;2023-03-31T18:34:11;12.20;99.90
21393;DHT22;10857;52.228;21.026;2023-03-31T18:36:39;12.30;99.90
21393;DHT22;10857;52.228;21.026;2023-03-31T18:39:06;12.30;99.90
21393;DHT22;10857;52.228;21.026;2023-03-31T18:41:33;12.20;99.90
21393;DHT22;10857;52.228;21.026;2023-03-31T18:44:00;12.20;99.90
21393;DHT22;10857;52.228;21.026;2023-03-31T18:56:17;12.30;99.90
